Connor Foss — WDG3727 — position and weather

sailwx.info

Track history (hours):
 
Tides and Currents Weather Stations Pressure Air Temp Water Temp Dewpoint Dewpoint Depression Visibility Wind Speed Wind Dir Waves Ship Positions

Connor Foss

Owner: Foss Maritime Company, Seattle, WA. More information available from US FCC via Universal Licensing System and Coast Guard Vessel Documentation Center.

Last reported at 2018-Jul-21 17:01 UTC. Time now 2018-Jul-21 17:17 UTC.
Position N 46°11' W 123°50'.

Length 20 m; draft 1.8 m.

Type: . MMSI: 367529030.

Date/timePositionNaut miles runAvg speedWind from/ knotsBaromVisibWave heightAir tempDewpointWater temp
2018-Jul-21 17:01N 46°11' W 123°50'0 0.1
2018-Jul-21 16:30N 46°11' W 123°50'0 0.0
2018-Jul-21 16:00N 46°11' W 123°50'0 0.0
2018-Jul-21 15:31N 46°11' W 123°50'0 0.0
2018-Jul-21 14:56N 46°11' W 123°50'0 0.0
2018-Jul-21 14:31N 46°11' W 123°50'0 0.3
2018-Jul-21 13:30N 46°11' W 123°49'0 0.6
2018-Jul-21 13:00N 46°11' W 123°50'0 0.0
2018-Jul-21 12:30N 46°11' W 123°50'0 0.0
2018-Jul-21 12:00N 46°11' W 123°50'0 0.0
2018-Jul-21 11:12N 46°11' W 123°50'0 0.0
2018-Jul-21 10:50N 46°11' W 123°50'0 0.0
2018-Jul-21 10:30N 46°11' W 123°50'0 0.1
2018-Jul-21 10:00N 46°11' W 123°50'0 0.0
2018-Jul-21 09:30N 46°11' W 123°50'0 0.1
2018-Jul-21 09:01N 46°11' W 123°50'0 0.0
2018-Jul-21 08:30N 46°11' W 123°50'0 0.6
2018-Jul-21 08:01N 46°12' W 123°49'5 6.1
2018-Jul-21 07:09N 46°14' W 123°43'0 0.0
2018-Jul-21 06:59N 46°14' W 123°43'5 7.9
2018-Jul-21 06:18N 46°11' W 123°50'0 0.2
2018-Jul-21 05:57N 46°11' W 123°50'0 0.0
2018-Jul-21 05:31N 46°11' W 123°50'1 2.7
2018-Jul-21 05:00N 46°12' W 123°48'2 4.7
2018-Jul-21 04:31N 46°13' W 123°45'4 7.1
2018-Jul-21 04:00N 46°11' W 123°50'0 0.3
2018-Jul-21 03:31N 46°11' W 123°50'0 0.4
2018-Jul-21 03:00N 46°11' W 123°50'0 0.7
2018-Jul-21 02:30N 46°12' W 123°49'0 0.7
2018-Jul-21 02:00N 46°11' W 123°50'0 0.0
2018-Jul-21 01:19N 46°11' W 123°50'0 0.0
2018-Jul-21 01:00N 46°11' W 123°50'0 0.0
2018-Jul-21 00:13N 46°11' W 123°50'0 0.0
2018-Jul-21 00:00N 46°11' W 123°50'0 0.0
2018-Jul-20 23:29N 46°11' W 123°50'1 2.3
2018-Jul-20 23:01N 46°12' W 123°48'0 0.9
2018-Jul-20 22:30N 46°12' W 123°49'1 1.3
2018-Jul-20 22:00N 46°11' W 123°50'1 0.7
2018-Jul-20 21:14N 46°12' W 123°49'1 2.2
2018-Jul-20 21:00N 46°11' W 123°50'1 1.0
2018-Jul-20 20:30N 46°12' W 123°49'3 7.1
2018-Jul-20 20:00N 46°14' W 123°45'2 2.3
2018-Jul-20 19:17N 46°13' W 123°47'2 7.8
2018-Jul-20 19:00N 46°12' W 123°50'0 0.4
2018-Jul-20 18:30N 46°11' W 123°50'0 0.0
2018-Jul-20 18:01N 46°11' W 123°50'1 1.5
2018-Jul-20 17:31N 46°12' W 123°51'1 1.6
2018-Jul-20 17:00N 46°11' W 123°50'0 0.1
2018-Jul-20 16:22N 46°11' W 123°50'0 0.0
2018-Jul-20 16:01N 46°11' W 123°50'0 0.0
2018-Jul-20 15:31N 46°11' W 123°50'0 0.0
2018-Jul-20 14:55N 46°11' W 123°50'0 0.0
2018-Jul-20 14:17N 46°11' W 123°50'0 0.0
2018-Jul-20 14:00N 46°11' W 123°50'0 0.0
2018-Jul-20 13:30N 46°11' W 123°50'0 0.0
2018-Jul-20 13:00N 46°11' W 123°50'0 0.0
2018-Jul-20 12:31N 46°11' W 123°50'0 0.1
2018-Jul-20 12:01N 46°11' W 123°50'0 0.1
2018-Jul-20 11:31N 46°11' W 123°50'0 0.0
2018-Jul-20 11:01N 46°11' W 123°50'0 0.0
2018-Jul-20 10:31N 46°11' W 123°50'0 0.0
2018-Jul-20 10:00N 46°11' W 123°50'0 0.1
2018-Jul-20 09:31N 46°11' W 123°50'0 0.1
2018-Jul-20 08:58N 46°11' W 123°50'0 0.0
2018-Jul-20 08:30N 46°11' W 123°50'0 0.0
2018-Jul-20 07:55N 46°11' W 123°50'0 0.1
2018-Jul-20 07:30N 46°11' W 123°50'0 0.0
2018-Jul-20 06:59N 46°11' W 123°50'0 0.1
2018-Jul-20 06:31N 46°11' W 123°50'0 0.1
2018-Jul-20 06:01N 46°11' W 123°50'0 0.1
2018-Jul-20 05:31N 46°11' W 123°50'0 0.0
2018-Jul-20 04:58N 46°11' W 123°50'0 0.0
2018-Jul-20 04:31N 46°11' W 123°50'0 0.0
2018-Jul-20 03:56N 46°11' W 123°50'0 0.0
2018-Jul-20 03:31N 46°11' W 123°50'0 0.0
2018-Jul-20 03:00N 46°11' W 123°50'0 0.0
2018-Jul-20 02:30N 46°11' W 123°50'0 0.0
2018-Jul-20 02:01N 46°11' W 123°50'0 0.0
2018-Jul-20 01:31N 46°11' W 123°50'0 0.1
2018-Jul-20 01:01N 46°11' W 123°50'0 0.1
2018-Jul-20 00:31N 46°11' W 123°50'0 0.0
2018-Jul-20 00:01N 46°11' W 123°50'0 0.1
2018-Jul-19 23:31N 46°11' W 123°50'0 0.2
2018-Jul-19 23:00N 46°11' W 123°50'0 0.3
2018-Jul-19 22:30N 46°11' W 123°50'0 0.0
2018-Jul-19 21:59N 46°11' W 123°50'0 0.5
2018-Jul-19 21:30N 46°12' W 123°50'0 0.5
2018-Jul-19 21:00N 46°11' W 123°50'1 2.7
2018-Jul-19 20:31N 46°12' W 123°48'1 2.7
2018-Jul-19 20:00N 46°11' W 123°50'0 0.0
2018-Jul-19 19:30N 46°11' W 123°50'0 0.0
2018-Jul-19 19:01N 46°11' W 123°50'0 0.0
2018-Jul-19 18:30N 46°11' W 123°50'0 0.0
2018-Jul-19 17:57N 46°11' W 123°50'1 0.8
2018-Jul-19 17:18N 46°12' W 123°49'1 1.3
2018-Jul-19 16:53N 46°11' W 123°50'1 3.7
2018-Jul-19 16:30N 46°12' W 123°48'1 2.8
2018-Jul-19 16:00N 46°11' W 123°50'0 0.0
2018-Jul-19 15:24N 46°11' W 123°50'0 0.0
2018-Jul-19 14:55N 46°11' W 123°50'0 0.0
2018-Jul-19 14:30N 46°11' W 123°50'1 1.0
2018-Jul-19 13:27N 46°12' W 123°48'1 1.3
2018-Jul-19 13:00N 46°12' W 123°48'2 3.0
2018-Jul-19 12:30N 46°11' W 123°50'1 1.7
2018-Jul-19 12:00N 46°12' W 123°49'1 1.8
2018-Jul-19 11:31N 46°11' W 123°50'0 0.0
2018-Jul-19 11:01N 46°11' W 123°50'0 0.1
2018-Jul-19 10:31N 46°11' W 123°50'0 0.1
2018-Jul-19 09:55N 46°11' W 123°50'0 0.0
2018-Jul-19 09:31N 46°11' W 123°50'0 0.0
2018-Jul-19 09:00N 46°11' W 123°50'1 1.6
2018-Jul-19 08:31N 46°12' W 123°49'1 1.4
2018-Jul-19 08:00N 46°12' W 123°50'0 0.2
2018-Jul-19 07:30N 46°11' W 123°50'0 0.0
2018-Jul-19 06:59N 46°11' W 123°50'0 0.0
2018-Jul-19 06:30N 46°11' W 123°50'0 0.1
2018-Jul-19 06:00N 46°11' W 123°50'0 0.1
2018-Jul-19 05:29N 46°11' W 123°50'0 0.1
2018-Jul-19 05:00N 46°11' W 123°50'0 0.1
2018-Jul-19 04:30N 46°11' W 123°50'0 0.5
2018-Jul-19 04:01N 46°11' W 123°50'0 0.4
2018-Jul-19 03:30N 46°11' W 123°50'0 0.0
2018-Jul-19 03:00N 46°11' W 123°50'0 0.0
2018-Jul-19 02:30N 46°11' W 123°50'0 0.4
2018-Jul-19 02:00N 46°11' W 123°50'0 0.3
2018-Jul-19 01:30N 46°11' W 123°50'0 0.0
2018-Jul-19 01:00N 46°11' W 123°50'1 1.1
2018-Jul-19 00:31N 46°12' W 123°49'1 1.1
2018-Jul-19 00:00N 46°11' W 123°50'0 0.1
2018-Jul-18 23:30N 46°11' W 123°50'0 0.0
2018-Jul-18 23:00N 46°11' W 123°50'0 0.1
2018-Jul-18 22:19N 46°11' W 123°50'0 0.0
2018-Jul-18 22:00N 46°11' W 123°50'0 0.0
2018-Jul-18 21:31N 46°11' W 123°50'0 0.0
2018-Jul-18 21:00N 46°11' W 123°50'0 0.1
2018-Jul-18 20:30N 46°11' W 123°50'0 0.2
2018-Jul-18 20:00N 46°12' W 123°50'0 0.3
2018-Jul-18 19:31N 46°11' W 123°50'0 0.0
2018-Jul-18 19:00N 46°11' W 123°50'0 0.0
2018-Jul-18 18:21N 46°11' W 123°50'0 0.0
2018-Jul-18 18:01N 46°11' W 123°50'0 0.1
2018-Jul-18 17:31N 46°11' W 123°50'0 0.1
2018-Jul-18 17:00N 46°11' W 123°50'4 8.2
2018-Jul-18 16:30N 46°14' W 123°45'3 6.4
2018-Jul-18 16:01N 46°12' W 123°49'1 1.5
2018-Jul-18 15:27N 46°11' W 123°50'0 0.0
2018-Jul-18 15:00N 46°11' W 123°50'0 0.0
2018-Jul-18 14:31N 46°11' W 123°50'0 0.0
2018-Jul-18 13:30N 46°11' W 123°50'0 0.0
2018-Jul-18 13:00N 46°11' W 123°50'0 0.0
2018-Jul-18 12:16N 46°11' W 123°50'0 0.0
2018-Jul-18 12:00N 46°11' W 123°50'0 0.0
2018-Jul-18 11:30N 46°11' W 123°50'0 0.0
2018-Jul-18 10:31N 46°11' W 123°50'0 0.0
2018-Jul-18 10:00N 46°11' W 123°50'0 0.0
2018-Jul-18 09:30N 46°11' W 123°50'0 0.1
2018-Jul-18 09:01N 46°11' W 123°50'0 0.0
2018-Jul-18 08:30N 46°11' W 123°50'0 0.0
2018-Jul-18 08:01N 46°11' W 123°50'0 0.0
2018-Jul-18 07:30N 46°11' W 123°50'0 0.0
2018-Jul-18 06:59N 46°11' W 123°50'0 0.0
2018-Jul-18 06:30N 46°11' W 123°50'0 0.1
2018-Jul-18 06:01N 46°11' W 123°50'0 0.1
2018-Jul-18 05:31N 46°11' W 123°50'0 0.1
2018-Jul-18 04:48N 46°11' W 123°50'0 0.0
2018-Jul-18 04:30N 46°11' W 123°50'0 0.1
2018-Jul-18 03:54N 46°11' W 123°50'0 0.2
2018-Jul-18 03:31N 46°11' W 123°50'1 1.5
2018-Jul-18 03:00N 46°12' W 123°49'1 1.7
2018-Jul-18 02:30N 46°11' W 123°50'0 0.0
2018-Jul-18 02:01N 46°11' W 123°50'0 0.0
2018-Jul-18 01:30N 46°11' W 123°50'0 0.0
2018-Jul-18 00:40N 46°11' W 123°50'0 0.0
2018-Jul-18 00:30N 46°11' W 123°50'0 0.0
2018-Jul-18 00:00N 46°11' W 123°50'0 0.0
2018-Jul-17 23:31N 46°11' W 123°50'0 0.1
2018-Jul-17 23:01N 46°11' W 123°50'0 0.7
2018-Jul-17 22:30N 46°12' W 123°49'0 0.8
2018-Jul-17 22:00N 46°11' W 123°50'0 0.0
2018-Jul-17 21:30N 46°11' W 123°50'0 0.1
2018-Jul-17 21:00N 46°11' W 123°50'0 0.1
2018-Jul-17 20:30N 46°11' W 123°50'0 0.0
2018-Jul-17 20:00N 46°11' W 123°50'0 0.0
2018-Jul-17 19:30N 46°11' W 123°50'0 0.0
2018-Jul-17 19:00N 46°11' W 123°50'0 0.0
2018-Jul-17 18:30N 46°11' W 123°50'0 0.0
2018-Jul-17 18:00N 46°11' W 123°50'0 0.0
2018-Jul-17 17:30N 46°11' W 123°50'0 0.0
2018-Jul-17 17:01N 46°11' W 123°50'0 0.0
2018-Jul-17 16:16N 46°11' W 123°50'0 0.0
2018-Jul-17 16:01N 46°11' W 123°50'0 0.7
2018-Jul-17 15:30N 46°12' W 123°50'0 0.0
2018-Jul-17 15:01N 46°12' W 123°50'0 0.7
2018-Jul-17 14:31N 46°11' W 123°50'0 0.0
2018-Jul-17 14:01N 46°11' W 123°50'0 0.0
2018-Jul-17 13:30N 46°11' W 123°50'0 0.0
2018-Jul-17 13:00N 46°11' W 123°50'0 0.0
2018-Jul-17 12:30N 46°11' W 123°50'0 0.0
2018-Jul-17 11:50N 46°11' W 123°50'0 0.0
2018-Jul-17 11:23N 46°11' W 123°50'0 0.0
2018-Jul-17 11:01N 46°11' W 123°50'0 0.0
2018-Jul-17 10:16N 46°11' W 123°50'0 0.0
2018-Jul-17 10:00N 46°11' W 123°50'0 0.0
2018-Jul-17 09:31N 46°11' W 123°50'1 2.1
2018-Jul-17 09:01N 46°12' W 123°48'1 2.1
2018-Jul-17 08:31N 46°11' W 123°50'0 0.0
2018-Jul-17 08:01N 46°11' W 123°50'0 0.0
2018-Jul-17 07:30N 46°11' W 123°50'0 0.0
2018-Jul-17 07:00N 46°11' W 123°50'0 0.0
2018-Jul-17 06:31N 46°11' W 123°50'0 0.1
2018-Jul-17 06:01N 46°11' W 123°50'0 0.1
2018-Jul-17 05:31N 46°11' W 123°50'0 0.1
2018-Jul-17 05:01N 46°11' W 123°50'0 0.2
2018-Jul-17 04:30N 46°12' W 123°50'0 0.1
2018-Jul-17 04:00N 46°11' W 123°50'0 0.7
2018-Jul-17 03:30N 46°12' W 123°49'0 0.7
2018-Jul-17 03:00N 46°11' W 123°50'0 0.0
2018-Jul-17 02:31N 46°11' W 123°50'0 0.0
2018-Jul-17 02:00N 46°11' W 123°50'0 0.0
2018-Jul-17 01:30N 46°11' W 123°50'0 0.0
2018-Jul-17 01:00N 46°11' W 123°50'0 0.0
2018-Jul-17 00:30N 46°11' W 123°50'0 0.0
2018-Jul-16 23:31N 46°11' W 123°50'0 0.0
2018-Jul-16 23:00N 46°11' W 123°50'0 0.0
2018-Jul-16 22:30N 46°11' W 123°50'0 0.1
2018-Jul-16 22:00N 46°11' W 123°50'0 0.1
2018-Jul-16 21:30N 46°11' W 123°50'0 0.0
2018-Jul-16 21:00N 46°11' W 123°50'0 0.0
2018-Jul-16 20:30N 46°11' W 123°50'0 0.1
2018-Jul-16 20:00N 46°11' W 123°50'4 7.2
2018-Jul-16 19:29N 46°13' W 123°45'4 7.7
2018-Jul-16 19:00N 46°11' W 123°50'1 1.5
2018-Jul-16 18:30N 46°12' W 123°49'1 1.5
2018-Jul-16 17:59N 46°11' W 123°50'0 0.1
2018-Jul-16 17:30N 46°11' W 123°50'0 0.1
2018-Jul-16 17:01N 46°11' W 123°50'0 0.0
2018-Jul-16 16:31N 46°11' W 123°50'0 0.0
2018-Jul-16 16:00N 46°11' W 123°50'0 0.0
2018-Jul-16 15:30N 46°11' W 123°50'0 0.0
2018-Jul-16 15:01N 46°11' W 123°50'0 0.0
2018-Jul-16 14:31N 46°11' W 123°50'0 0.0
2018-Jul-16 14:01N 46°11' W 123°50'0 0.0
2018-Jul-16 13:31N 46°11' W 123°50'0 0.0
2018-Jul-16 13:00N 46°11' W 123°50'0 0.0
2018-Jul-16 12:30N 46°11' W 123°50'0 0.0
2018-Jul-16 12:01N 46°11' W 123°50'0 0.0
2018-Jul-16 11:31N 46°11' W 123°50'0 0.0
2018-Jul-16 11:01N 46°11' W 123°50'0 0.1
2018-Jul-16 10:31N 46°11' W 123°50'0 0.0
2018-Jul-16 10:01N 46°11' W 123°50'0 0.0
2018-Jul-16 09:30N 46°11' W 123°50'0 0.1
2018-Jul-16 09:01N 46°11' W 123°50'0 0.0
2018-Jul-16 08:31N 46°11' W 123°50'1 1.8
2018-Jul-16 08:00N 46°12' W 123°49'1 1.8
2018-Jul-16 07:31N 46°11' W 123°50'0 0.0
2018-Jul-16 07:00N 46°11' W 123°50'0 0.0
2018-Jul-16 06:31N 46°11' W 123°50'0 0.0
2018-Jul-16 06:01N 46°11' W 123°50'0 0.0
2018-Jul-16 05:31N 46°11' W 123°50'0 0.0
2018-Jul-16 05:01N 46°11' W 123°50'0 0.0
2018-Jul-16 04:31N 46°11' W 123°50'0 0.0
2018-Jul-16 04:01N 46°11' W 123°50'0 0.0
2018-Jul-16 03:31N 46°11' W 123°50'0 0.0
2018-Jul-16 03:00N 46°11' W 123°50'0 0.0
2018-Jul-16 02:30N 46°11' W 123°50'0 0.0
2018-Jul-16 02:01N 46°11' W 123°50'0 0.0
2018-Jul-16 01:31N 46°11' W 123°50'0 0.0
2018-Jul-16 01:01N 46°11' W 123°50'0 0.1
2018-Jul-16 00:30N 46°11' W 123°50'0 0.0
2018-Jul-16 00:00N 46°11' W 123°50'0 0.1
2018-Jul-15 23:30N 46°11' W 123°50'0 0.0
2018-Jul-15 23:01N 46°11' W 123°50'0 0.0
2018-Jul-15 22:31N 46°11' W 123°50'0 0.1
2018-Jul-15 22:00N 46°11' W 123°50'0 0.1
2018-Jul-15 21:31N 46°11' W 123°50'0 0.1
2018-Jul-15 21:01N 46°11' W 123°50'0 0.1
2018-Jul-15 20:31N 46°11' W 123°50'0 0.0
2018-Jul-15 20:01N 46°11' W 123°50'0 0.0
2018-Jul-15 19:30N 46°11' W 123°50'0 0.1
2018-Jul-15 19:00N 46°11' W 123°50'1 1.4
2018-Jul-15 18:30N 46°12' W 123°49'1 1.5
2018-Jul-15 18:00N 46°11' W 123°50'0 0.0
2018-Jul-15 17:30N 46°11' W 123°50'0 0.0
2018-Jul-15 17:00N 46°11' W 123°50'0 0.0
2018-Jul-15 16:30N 46°11' W 123°50'0 0.0
2018-Jul-15 16:01N 46°11' W 123°50'0 0.0
2018-Jul-15 15:31N 46°11' W 123°50'0 0.0
2018-Jul-15 15:00N 46°11' W 123°50'0 0.0
2018-Jul-15 14:31N 46°11' W 123°50'0 0.5
2018-Jul-15 14:01N 46°12' W 123°50'0 0.5
2018-Jul-15 13:29N 46°11' W 123°50'0 0.0
2018-Jul-15 13:00N 46°11' W 123°50'0 0.1
2018-Jul-15 12:30N 46°11' W 123°50'1 1.3
2018-Jul-15 12:00N 46°12' W 123°49'1 1.4
2018-Jul-15 11:30N 46°11' W 123°50'0 0.0
2018-Jul-15 11:00N 46°11' W 123°50'0 0.1
2018-Jul-15 10:30N 46°11' W 123°50'0 0.1
2018-Jul-15 10:00N 46°11' W 123°50'0 0.1
2018-Jul-15 09:30N 46°11' W 123°50'0 0.1
2018-Jul-15 09:00N 46°11' W 123°50'1 1.5
2018-Jul-15 08:30N 46°12' W 123°49'1 1.4
2018-Jul-15 08:00N 46°11' W 123°50'1 1.1
2018-Jul-15 07:31N 46°12' W 123°49'1 1.1
2018-Jul-15 06:59N 46°11' W 123°50'0 0.0
2018-Jul-15 06:30N 46°11' W 123°50'0 0.0
2018-Jul-15 06:00N 46°11' W 123°50'0 0.0
2018-Jul-15 05:30N 46°11' W 123°50'0 0.0
2018-Jul-15 05:00N 46°11' W 123°50'0 0.0
2018-Jul-15 04:30N 46°11' W 123°50'1 2.2
2018-Jul-15 04:00N 46°12' W 123°49'1 2.2
2018-Jul-15 03:30N 46°11' W 123°50'1 1.9
2018-Jul-15 03:01N 46°12' W 123°49'1 1.8
2018-Jul-15 02:30N 46°11' W 123°50'0 0.8
2018-Jul-15 02:01N 46°12' W 123°50'2 4.1
2018-Jul-15 01:30N 46°13' W 123°47'2 4.8
2018-Jul-15 01:00N 46°11' W 123°50'0 0.0
2018-Jul-15 00:30N 46°11' W 123°50'0 0.0
2018-Jul-15 00:00N 46°11' W 123°50'0 0.1
2018-Jul-14 23:13N 46°11' W 123°50'1 2.9
2018-Jul-14 23:01N 46°12' W 123°49'1 2.1
2018-Jul-14 22:31N 46°13' W 123°48'2 3.3
2018-Jul-14 22:00N 46°11' W 123°50'0 0.0
2018-Jul-14 21:30N 46°11' W 123°50'0 0.0
2018-Jul-14 21:00N 46°11' W 123°50'0 0.0
2018-Jul-14 20:30N 46°11' W 123°50'0 0.0
2018-Jul-14 20:01N 46°11' W 123°50'0 0.0
2018-Jul-14 19:30N 46°11' W 123°50'0 0.0
2018-Jul-14 19:01N 46°11' W 123°50'0 0.0
2018-Jul-14 18:29N 46°11' W 123°50'0 0.0
2018-Jul-14 18:00N 46°11' W 123°50'0 0.1
2018-Jul-14 17:30N 46°11' W 123°50'0 0.0
2018-Jul-14 17:01N 46°11' W 123°50'2 4.1
2018-Jul-14 16:31N 46°13' W 123°48'2 4.2
2018-Jul-14 16:01N 46°11' W 123°50'0 0.0
2018-Jul-14 15:31N 46°11' W 123°50'0 0.0
2018-Jul-14 15:01N 46°11' W 123°50'0 0.0
2018-Jul-14 14:30N 46°11' W 123°50'0 0.0
2018-Jul-14 13:29N 46°11' W 123°50'0 0.0
2018-Jul-14 13:00N 46°11' W 123°50'0 0.1
2018-Jul-14 12:31N 46°11' W 123°50'0 0.1
2018-Jul-14 12:00N 46°11' W 123°50'0 0.0
2018-Jul-14 11:30N 46°11' W 123°50'0 0.0
2018-Jul-14 11:01N 46°11' W 123°50'0 0.0
2018-Jul-14 10:31N 46°11' W 123°50'0 0.0
2018-Jul-14 10:01N 46°11' W 123°50'0 0.0
2018-Jul-14 09:15N 46°11' W 123°50'0 1.6
2018-Jul-14 09:01N 46°12' W 123°50'0 0.7
2018-Jul-14 08:30N 46°11' W 123°50'0 0.1
2018-Jul-14 08:00N 46°11' W 123°50'0 0.1
2018-Jul-14 07:31N 46°11' W 123°50'0 0.0
2018-Jul-14 06:59N 46°11' W 123°50'0 0.0
2018-Jul-14 06:30N 46°11' W 123°50'0 0.0
2018-Jul-14 06:00N 46°11' W 123°50'0 0.1
2018-Jul-14 05:30N 46°11' W 123°50'0 0.1
2018-Jul-14 05:00N 46°11' W 123°50'0 0.0
2018-Jul-14 04:30N 46°11' W 123°50'0 0.8
2018-Jul-14 04:01N 46°12' W 123°50'0 0.7
2018-Jul-14 03:27N 46°11' W 123°50'1 3.0
2018-Jul-14 03:00N 46°12' W 123°48'1 2.6
2018-Jul-14 02:30N 46°11' W 123°50'1 2.5
2018-Jul-14 02:00N 46°12' W 123°48'1 2.5
2018-Jul-14 01:30N 46°11' W 123°50'0 0.0
2018-Jul-14 01:00N 46°11' W 123°50'0 0.0
2018-Jul-14 00:30N 46°11' W 123°50'0 0.0
2018-Jul-13 23:49N 46°11' W 123°50'3 9.1
2018-Jul-13 23:31N 46°13' W 123°46'0 0.3
2018-Jul-13 23:00N 46°13' W 123°47'3 5.3
2018-Jul-13 22:30N 46°12' W 123°50'0 0.2
2018-Jul-13 22:01N 46°11' W 123°50'0 0.7
2018-Jul-13 21:30N 46°12' W 123°50'0 0.7
2018-Jul-13 21:00N 46°11' W 123°50'0 0.0
2018-Jul-13 20:16N 46°11' W 123°50'0 0.0
2018-Jul-13 20:00N 46°11' W 123°50'0 0.0
2018-Jul-13 19:30N 46°11' W 123°50'0 0.0
2018-Jul-13 19:00N 46°11' W 123°50'2 4.2
2018-Jul-13 18:30N 46°13' W 123°47'2 3.7
2018-Jul-13 18:01N 46°13' W 123°45'3 5.2
2018-Jul-13 17:30N 46°12' W 123°48'1 2.7
2018-Jul-13 17:01N 46°11' W 123°50'0 0.0
2018-Jul-13 16:30N 46°11' W 123°50'0 0.0
2018-Jul-13 16:00N 46°11' W 123°50'0 0.0
2018-Jul-13 15:31N 46°11' W 123°50'0 0.0
2018-Jul-13 15:00N 46°11' W 123°50'0 0.0
2018-Jul-13 14:00N 46°11' W 123°50'0 0.0
2018-Jul-13 13:30N 46°11' W 123°50'0 0.0
2018-Jul-13 13:00N 46°11' W 123°50'0 0.0
2018-Jul-13 12:31N 46°11' W 123°50'0 0.0
2018-Jul-13 12:00N 46°11' W 123°50'0 0.0
2018-Jul-13 11:31N 46°11' W 123°50'0 0.0
2018-Jul-13 11:00N 46°11' W 123°50'1 1.2
2018-Jul-13 10:31N 46°12' W 123°49'1 1.1
2018-Jul-13 10:00N 46°11' W 123°50'0 0.1
2018-Jul-13 09:30N 46°11' W 123°50'0 0.1
2018-Jul-13 09:01N 46°11' W 123°50'1 2.5
2018-Jul-13 08:31N 46°12' W 123°49'1 2.5
2018-Jul-13 08:01N 46°11' W 123°50'0 0.1
2018-Jul-13 07:30N 46°11' W 123°50'0 0.0
2018-Jul-13 06:59N 46°11' W 123°50'0 0.0
2018-Jul-13 06:30N 46°11' W 123°50'0 0.0
2018-Jul-13 06:01N 46°11' W 123°50'0 0.1
2018-Jul-13 05:30N 46°11' W 123°50'0 0.1
2018-Jul-13 05:00N 46°11' W 123°50'0 0.0
2018-Jul-13 04:31N 46°11' W 123°50'0 0.4
2018-Jul-13 04:01N 46°12' W 123°50'0 0.4
2018-Jul-13 03:31N 46°11' W 123°50'0 0.0
2018-Jul-13 03:01N 46°11' W 123°50'0 0.0
2018-Jul-13 02:30N 46°11' W 123°50'0 0.0
2018-Jul-13 02:00N 46°11' W 123°50'0 0.0
2018-Jul-13 01:30N 46°11' W 123°50'0 0.0
2018-Jul-13 01:01N 46°11' W 123°50'0 0.0
2018-Jul-13 00:30N 46°11' W 123°50'0 0.0
2018-Jul-13 00:00N 46°11' W 123°50'1 2.7
2018-Jul-12 23:30N 46°12' W 123°48'1 2.7
2018-Jul-12 23:00N 46°11' W 123°50'0 0.0
2018-Jul-12 22:30N 46°11' W 123°50'0 0.9
2018-Jul-12 22:00N 46°12' W 123°49'0 0.9
2018-Jul-12 21:30N 46°11' W 123°50'0 0.0
2018-Jul-12 21:00N 46°11' W 123°50'0 0.0
2018-Jul-12 20:30N 46°11' W 123°50'0 0.0
2018-Jul-12 19:37N 46°11' W 123°50'0 0.0
2018-Jul-12 19:30N 46°11' W 123°50'0 0.0
2018-Jul-12 19:00N 46°11' W 123°50'0 0.5
2018-Jul-12 18:30N 46°12' W 123°50'0 0.5
2018-Jul-12 18:00N 46°11' W 123°50'0 0.0
2018-Jul-12 17:22N 46°11' W 123°50'0 0.0
2018-Jul-12 17:00N 46°11' W 123°50'0 0.0
2018-Jul-12 16:30N 46°11' W 123°50'1 2.5
2018-Jul-12 16:00N 46°12' W 123°49'3 5.7
2018-Jul-12 15:31N 46°14' W 123°45'4 8.0
2018-Jul-12 15:01N 46°11' W 123°50'0 0.5
2018-Jul-12 14:31N 46°12' W 123°50'0 0.5
2018-Jul-12 14:01N 46°11' W 123°50'0 0.0
2018-Jul-12 13:31N 46°11' W 123°50'0 0.0
2018-Jul-12 13:00N 46°11' W 123°50'0 0.0
2018-Jul-12 12:18N 46°11' W 123°50'0 0.1
2018-Jul-12 12:01N 46°11' W 123°50'0 0.1
2018-Jul-12 11:31N 46°11' W 123°50'0 0.0
2018-Jul-12 10:35N 46°11' W 123°50'0 0.5
2018-Jul-12 10:30N 46°11' W 123°50'0 0.0
2018-Jul-12 09:48N 46°11' W 123°50'0 0.0
2018-Jul-12 09:31N 46°11' W 123°50'0 0.0
2018-Jul-12 08:54N 46°11' W 123°50'2 5.5
2018-Jul-12 08:31N 46°13' W 123°47'2 3.9
2018-Jul-12 07:58N 46°11' W 123°50'0 0.1
2018-Jul-12 07:30N 46°11' W 123°50'0 0.1
2018-Jul-12 06:59N 46°11' W 123°50'0 0.0
2018-Jul-12 06:30N 46°11' W 123°50'0 0.0
2018-Jul-12 06:01N 46°11' W 123°50'0 0.0
2018-Jul-12 05:30N 46°11' W 123°50'0 0.0
2018-Jul-12 05:01N 46°11' W 123°50'0 0.0
2018-Jul-12 04:24N 46°11' W 123°50'0 0.0
2018-Jul-12 04:01N 46°11' W 123°50'0 0.0
2018-Jul-12 03:30N 46°11' W 123°50'0 0.0
2018-Jul-12 02:48N 46°11' W 123°50'0 0.0
2018-Jul-12 02:30N 46°11' W 123°50'0 0.0
2018-Jul-12 02:01N 46°11' W 123°50'0 0.0
2018-Jul-12 01:30N 46°11' W 123°50'0 0.0
2018-Jul-12 01:01N 46°11' W 123°50'0 0.0
2018-Jul-12 00:30N 46°11' W 123°50'0 0.0
2018-Jul-12 00:01N 46°11' W 123°50'0 0.0
2018-Jul-11 23:31N 46°11' W 123°50'2 3.3
2018-Jul-11 23:00N 46°12' W 123°48'2 3.3
2018-Jul-11 22:30N 46°11' W 123°50'0 0.0
2018-Jul-11 22:00N 46°11' W 123°50'0 0.0
2018-Jul-11 21:31N 46°11' W 123°50'0 0.0
2018-Jul-11 20:59N 46°11' W 123°50'0 0.0
2018-Jul-11 20:31N 46°11' W 123°50'0 0.0
2018-Jul-11 20:01N 46°11' W 123°50'0 0.0
2018-Jul-11 19:31N 46°11' W 123°50'0 0.0
2018-Jul-11 19:01N 46°11' W 123°50'1 1.6
2018-Jul-11 18:31N 46°12' W 123°49'1 1.6
2018-Jul-11 18:00N 46°11' W 123°50'0 0.0
2018-Jul-11 17:30N 46°11' W 123°50'0 0.0
2018-Jul-11 17:01N 46°11' W 123°50'  
Track history (hours):
 
Tides and Currents Weather Stations Pressure Air Temp Water Temp Dewpoint Dewpoint Depression Visibility Wind Speed Wind Dir Waves Ship Positions

Connor Foss

Owner: Foss Maritime Company, Seattle, WA. More information available from US FCC via Universal Licensing System and Coast Guard Vessel Documentation Center.

Last reported at 2018-Jul-21 17:01 UTC. Time now 2018-Jul-21 17:17 UTC.
Position N 46°11' W 123°50'.

Length 20 m; draft 1.8 m.

Type: . MMSI: 367529030.

Date/timePositionNaut miles runAvg speedWind from/ knotsBaromVisibWave heightAir tempDewpointWater temp
2018-Jul-21 17:01N 46°11' W 123°50'0 0.1
2018-Jul-21 16:30N 46°11' W 123°50'0 0.0
2018-Jul-21 16:00N 46°11' W 123°50'0 0.0
2018-Jul-21 15:31N 46°11' W 123°50'0 0.0
2018-Jul-21 14:56N 46°11' W 123°50'0 0.0
2018-Jul-21 14:31N 46°11' W 123°50'0 0.3
2018-Jul-21 13:30N 46°11' W 123°49'0 0.6
2018-Jul-21 13:00N 46°11' W 123°50'0 0.0
2018-Jul-21 12:30N 46°11' W 123°50'0 0.0
2018-Jul-21 12:00N 46°11' W 123°50'0 0.0
2018-Jul-21 11:12N 46°11' W 123°50'0 0.0
2018-Jul-21 10:50N 46°11' W 123°50'0 0.0
2018-Jul-21 10:30N 46°11' W 123°50'0 0.1
2018-Jul-21 10:00N 46°11' W 123°50'0 0.0
2018-Jul-21 09:30N 46°11' W 123°50'0 0.1
2018-Jul-21 09:01N 46°11' W 123°50'0 0.0
2018-Jul-21 08:30N 46°11' W 123°50'0 0.6
2018-Jul-21 08:01N 46°12' W 123°49'5 6.1
2018-Jul-21 07:09N 46°14' W 123°43'0 0.0
2018-Jul-21 06:59N 46°14' W 123°43'5 7.9
2018-Jul-21 06:18N 46°11' W 123°50'0 0.2
2018-Jul-21 05:57N 46°11' W 123°50'0 0.0
2018-Jul-21 05:31N 46°11' W 123°50'1 2.7
2018-Jul-21 05:00N 46°12' W 123°48'2 4.7
2018-Jul-21 04:31N 46°13' W 123°45'4 7.1
2018-Jul-21 04:00N 46°11' W 123°50'0 0.3
2018-Jul-21 03:31N 46°11' W 123°50'0 0.4
2018-Jul-21 03:00N 46°11' W 123°50'0 0.7
2018-Jul-21 02:30N 46°12' W 123°49'0 0.7
2018-Jul-21 02:00N 46°11' W 123°50'0 0.0
2018-Jul-21 01:19N 46°11' W 123°50'0 0.0
2018-Jul-21 01:00N 46°11' W 123°50'0 0.0
2018-Jul-21 00:13N 46°11' W 123°50'0 0.0
2018-Jul-21 00:00N 46°11' W 123°50'0 0.0
2018-Jul-20 23:29N 46°11' W 123°50'1 2.3
2018-Jul-20 23:01N 46°12' W 123°48'0 0.9
2018-Jul-20 22:30N 46°12' W 123°49'1 1.3
2018-Jul-20 22:00N 46°11' W 123°50'1 0.7
2018-Jul-20 21:14N 46°12' W 123°49'1 2.2
2018-Jul-20 21:00N 46°11' W 123°50'1 1.0
2018-Jul-20 20:30N 46°12' W 123°49'3 7.1
2018-Jul-20 20:00N 46°14' W 123°45'2 2.3
2018-Jul-20 19:17N 46°13' W 123°47'2 7.8
2018-Jul-20 19:00N 46°12' W 123°50'0 0.4
2018-Jul-20 18:30N 46°11' W 123°50'0 0.0
2018-Jul-20 18:01N 46°11' W 123°50'1 1.5
2018-Jul-20 17:31N 46°12' W 123°51'1 1.6
2018-Jul-20 17:00N 46°11' W 123°50'0 0.1
2018-Jul-20 16:22N 46°11' W 123°50'0 0.0
2018-Jul-20 16:01N 46°11' W 123°50'0 0.0
2018-Jul-20 15:31N 46°11' W 123°50'0 0.0
2018-Jul-20 14:55N 46°11' W 123°50'0 0.0
2018-Jul-20 14:17N 46°11' W 123°50'0 0.0
2018-Jul-20 14:00N 46°11' W 123°50'0 0.0
2018-Jul-20 13:30N 46°11' W 123°50'0 0.0
2018-Jul-20 13:00N 46°11' W 123°50'0 0.0
2018-Jul-20 12:31N 46°11' W 123°50'0 0.1
2018-Jul-20 12:01N 46°11' W 123°50'0 0.1
2018-Jul-20 11:31N 46°11' W 123°50'0 0.0
2018-Jul-20 11:01N 46°11' W 123°50'0 0.0
2018-Jul-20 10:31N 46°11' W 123°50'0 0.0
2018-Jul-20 10:00N 46°11' W 123°50'0 0.1
2018-Jul-20 09:31N 46°11' W 123°50'0 0.1
2018-Jul-20 08:58N 46°11' W 123°50'0 0.0
2018-Jul-20 08:30N 46°11' W 123°50'0 0.0
2018-Jul-20 07:55N 46°11' W 123°50'0 0.1
2018-Jul-20 07:30N 46°11' W 123°50'0 0.0
2018-Jul-20 06:59N 46°11' W 123°50'0 0.1
2018-Jul-20 06:31N 46°11' W 123°50'0 0.1
2018-Jul-20 06:01N 46°11' W 123°50'0 0.1
2018-Jul-20 05:31N 46°11' W 123°50'0 0.0
2018-Jul-20 04:58N 46°11' W 123°50'0 0.0
2018-Jul-20 04:31N 46°11' W 123°50'0 0.0
2018-Jul-20 03:56N 46°11' W 123°50'0 0.0
2018-Jul-20 03:31N 46°11' W 123°50'0 0.0
2018-Jul-20 03:00N 46°11' W 123°50'0 0.0
2018-Jul-20 02:30N 46°11' W 123°50'0 0.0
2018-Jul-20 02:01N 46°11' W 123°50'0 0.0
2018-Jul-20 01:31N 46°11' W 123°50'0 0.1
2018-Jul-20 01:01N 46°11' W 123°50'0 0.1
2018-Jul-20 00:31N 46°11' W 123°50'0 0.0
2018-Jul-20 00:01N 46°11' W 123°50'0 0.1
2018-Jul-19 23:31N 46°11' W 123°50'0 0.2
2018-Jul-19 23:00N 46°11' W 123°50'0 0.3
2018-Jul-19 22:30N 46°11' W 123°50'0 0.0
2018-Jul-19 21:59N 46°11' W 123°50'0 0.5
2018-Jul-19 21:30N 46°12' W 123°50'0 0.5
2018-Jul-19 21:00N 46°11' W 123°50'1 2.7
2018-Jul-19 20:31N 46°12' W 123°48'1 2.7
2018-Jul-19 20:00N 46°11' W 123°50'0 0.0
2018-Jul-19 19:30N 46°11' W 123°50'0 0.0
2018-Jul-19 19:01N 46°11' W 123°50'0 0.0
2018-Jul-19 18:30N 46°11' W 123°50'0 0.0
2018-Jul-19 17:57N 46°11' W 123°50'1 0.8
2018-Jul-19 17:18N 46°12' W 123°49'1 1.3
2018-Jul-19 16:53N 46°11' W 123°50'1 3.7
2018-Jul-19 16:30N 46°12' W 123°48'1 2.8
2018-Jul-19 16:00N 46°11' W 123°50'0 0.0
2018-Jul-19 15:24N 46°11' W 123°50'0 0.0
2018-Jul-19 14:55N 46°11' W 123°50'0 0.0
2018-Jul-19 14:30N 46°11' W 123°50'1 1.0
2018-Jul-19 13:27N 46°12' W 123°48'1 1.3
2018-Jul-19 13:00N 46°12' W 123°48'2 3.0
2018-Jul-19 12:30N 46°11' W 123°50'1 1.7
2018-Jul-19 12:00N 46°12' W 123°49'1 1.8
2018-Jul-19 11:31N 46°11' W 123°50'0 0.0
2018-Jul-19 11:01N 46°11' W 123°50'0 0.1
2018-Jul-19 10:31N 46°11' W 123°50'0 0.1
2018-Jul-19 09:55N 46°11' W 123°50'0 0.0
2018-Jul-19 09:31N 46°11' W 123°50'0 0.0
2018-Jul-19 09:00N 46°11' W 123°50'1 1.6
2018-Jul-19 08:31N 46°12' W 123°49'1 1.4
2018-Jul-19 08:00N 46°12' W 123°50'0 0.2
2018-Jul-19 07:30N 46°11' W 123°50'0 0.0
2018-Jul-19 06:59N 46°11' W 123°50'0 0.0
2018-Jul-19 06:30N 46°11' W 123°50'0 0.1
2018-Jul-19 06:00N 46°11' W 123°50'0 0.1
2018-Jul-19 05:29N 46°11' W 123°50'0 0.1
2018-Jul-19 05:00N 46°11' W 123°50'0 0.1
2018-Jul-19 04:30N 46°11' W 123°50'0 0.5
2018-Jul-19 04:01N 46°11' W 123°50'0 0.4
2018-Jul-19 03:30N 46°11' W 123°50'0 0.0
2018-Jul-19 03:00N 46°11' W 123°50'0 0.0
2018-Jul-19 02:30N 46°11' W 123°50'0 0.4
2018-Jul-19 02:00N 46°11' W 123°50'0 0.3
2018-Jul-19 01:30N 46°11' W 123°50'0 0.0
2018-Jul-19 01:00N 46°11' W 123°50'1 1.1
2018-Jul-19 00:31N 46°12' W 123°49'1 1.1
2018-Jul-19 00:00N 46°11' W 123°50'0 0.1
2018-Jul-18 23:30N 46°11' W 123°50'0 0.0
2018-Jul-18 23:00N 46°11' W 123°50'0 0.1
2018-Jul-18 22:19N 46°11' W 123°50'0 0.0
2018-Jul-18 22:00N 46°11' W 123°50'0 0.0
2018-Jul-18 21:31N 46°11' W 123°50'0 0.0
2018-Jul-18 21:00N 46°11' W 123°50'0 0.1
2018-Jul-18 20:30N 46°11' W 123°50'0 0.2
2018-Jul-18 20:00N 46°12' W 123°50'0 0.3
2018-Jul-18 19:31N 46°11' W 123°50'0 0.0
2018-Jul-18 19:00N 46°11' W 123°50'0 0.0
2018-Jul-18 18:21N 46°11' W 123°50'0 0.0
2018-Jul-18 18:01N 46°11' W 123°50'0 0.1
2018-Jul-18 17:31N 46°11' W 123°50'0 0.1
2018-Jul-18 17:00N 46°11' W 123°50'4 8.2
2018-Jul-18 16:30N 46°14' W 123°45'3 6.4
2018-Jul-18 16:01N 46°12' W 123°49'1 1.5
2018-Jul-18 15:27N 46°11' W 123°50'0 0.0
2018-Jul-18 15:00N 46°11' W 123°50'0 0.0
2018-Jul-18 14:31N 46°11' W 123°50'0 0.0
2018-Jul-18 13:30N 46°11' W 123°50'0 0.0
2018-Jul-18 13:00N 46°11' W 123°50'0 0.0
2018-Jul-18 12:16N 46°11' W 123°50'0 0.0
2018-Jul-18 12:00N 46°11' W 123°50'0 0.0
2018-Jul-18 11:30N 46°11' W 123°50'0 0.0
2018-Jul-18 10:31N 46°11' W 123°50'0 0.0
2018-Jul-18 10:00N 46°11' W 123°50'0 0.0
2018-Jul-18 09:30N 46°11' W 123°50'0 0.1
2018-Jul-18 09:01N 46°11' W 123°50'0 0.0
2018-Jul-18 08:30N 46°11' W 123°50'0 0.0
2018-Jul-18 08:01N 46°11' W 123°50'0 0.0
2018-Jul-18 07:30N 46°11' W 123°50'0 0.0
2018-Jul-18 06:59N 46°11' W 123°50'0 0.0
2018-Jul-18 06:30N 46°11' W 123°50'0 0.1
2018-Jul-18 06:01N 46°11' W 123°50'0 0.1
2018-Jul-18 05:31N 46°11' W 123°50'0 0.1
2018-Jul-18 04:48N 46°11' W 123°50'0 0.0
2018-Jul-18 04:30N 46°11' W 123°50'0 0.1
2018-Jul-18 03:54N 46°11' W 123°50'0 0.2
2018-Jul-18 03:31N 46°11' W 123°50'1 1.5
2018-Jul-18 03:00N 46°12' W 123°49'1 1.7
2018-Jul-18 02:30N 46°11' W 123°50'0 0.0
2018-Jul-18 02:01N 46°11' W 123°50'0 0.0
2018-Jul-18 01:30N 46°11' W 123°50'0 0.0
2018-Jul-18 00:40N 46°11' W 123°50'0 0.0
2018-Jul-18 00:30N 46°11' W 123°50'0 0.0
2018-Jul-18 00:00N 46°11' W 123°50'0 0.0
2018-Jul-17 23:31N 46°11' W 123°50'0 0.1
2018-Jul-17 23:01N 46°11' W 123°50'0 0.7
2018-Jul-17 22:30N 46°12' W 123°49'0 0.8
2018-Jul-17 22:00N 46°11' W 123°50'0 0.0
2018-Jul-17 21:30N 46°11' W 123°50'0 0.1
2018-Jul-17 21:00N 46°11' W 123°50'0 0.1
2018-Jul-17 20:30N 46°11' W 123°50'0 0.0
2018-Jul-17 20:00N 46°11' W 123°50'0 0.0
2018-Jul-17 19:30N 46°11' W 123°50'0 0.0
2018-Jul-17 19:00N 46°11' W 123°50'0 0.0
2018-Jul-17 18:30N 46°11' W 123°50'0 0.0
2018-Jul-17 18:00N 46°11' W 123°50'0 0.0
2018-Jul-17 17:30N 46°11' W 123°50'0 0.0
2018-Jul-17 17:01N 46°11' W 123°50'0 0.0
2018-Jul-17 16:16N 46°11' W 123°50'0 0.0
2018-Jul-17 16:01N 46°11' W 123°50'0 0.7
2018-Jul-17 15:30N 46°12' W 123°50'0 0.0
2018-Jul-17 15:01N 46°12' W 123°50'0 0.7
2018-Jul-17 14:31N 46°11' W 123°50'0 0.0
2018-Jul-17 14:01N 46°11' W 123°50'0 0.0
2018-Jul-17 13:30N 46°11' W 123°50'0 0.0
2018-Jul-17 13:00N 46°11' W 123°50'0 0.0
2018-Jul-17 12:30N 46°11' W 123°50'0 0.0
2018-Jul-17 11:50N 46°11' W 123°50'0 0.0
2018-Jul-17 11:23N 46°11' W 123°50'0 0.0
2018-Jul-17 11:01N 46°11' W 123°50'0 0.0
2018-Jul-17 10:16N 46°11' W 123°50'0 0.0
2018-Jul-17 10:00N 46°11' W 123°50'0 0.0
2018-Jul-17 09:31N 46°11' W 123°50'1 2.1
2018-Jul-17 09:01N 46°12' W 123°48'1 2.1
2018-Jul-17 08:31N 46°11' W 123°50'0 0.0
2018-Jul-17 08:01N 46°11' W 123°50'0 0.0
2018-Jul-17 07:30N 46°11' W 123°50'0 0.0
2018-Jul-17 07:00N 46°11' W 123°50'0 0.0
2018-Jul-17 06:31N 46°11' W 123°50'0 0.1
2018-Jul-17 06:01N 46°11' W 123°50'0 0.1
2018-Jul-17 05:31N 46°11' W 123°50'0 0.1
2018-Jul-17 05:01N 46°11' W 123°50'0 0.2
2018-Jul-17 04:30N 46°12' W 123°50'0 0.1
2018-Jul-17 04:00N 46°11' W 123°50'0 0.7
2018-Jul-17 03:30N 46°12' W 123°49'0 0.7
2018-Jul-17 03:00N 46°11' W 123°50'0 0.0
2018-Jul-17 02:31N 46°11' W 123°50'0 0.0
2018-Jul-17 02:00N 46°11' W 123°50'0 0.0
2018-Jul-17 01:30N 46°11' W 123°50'0 0.0
2018-Jul-17 01:00N 46°11' W 123°50'0 0.0
2018-Jul-17 00:30N 46°11' W 123°50'0 0.0
2018-Jul-16 23:31N 46°11' W 123°50'0 0.0
2018-Jul-16 23:00N 46°11' W 123°50'0 0.0
2018-Jul-16 22:30N 46°11' W 123°50'0 0.1
2018-Jul-16 22:00N 46°11' W 123°50'0 0.1
2018-Jul-16 21:30N 46°11' W 123°50'0 0.0
2018-Jul-16 21:00N 46°11' W 123°50'0 0.0
2018-Jul-16 20:30N 46°11' W 123°50'0 0.1
2018-Jul-16 20:00N 46°11' W 123°50'4 7.2
2018-Jul-16 19:29N 46°13' W 123°45'4 7.7
2018-Jul-16 19:00N 46°11' W 123°50'1 1.5
2018-Jul-16 18:30N 46°12' W 123°49'1 1.5
2018-Jul-16 17:59N 46°11' W 123°50'0 0.1
2018-Jul-16 17:30N 46°11' W 123°50'0 0.1
2018-Jul-16 17:01N 46°11' W 123°50'0 0.0
2018-Jul-16 16:31N 46°11' W 123°50'0 0.0
2018-Jul-16 16:00N 46°11' W 123°50'0 0.0
2018-Jul-16 15:30N 46°11' W 123°50'0 0.0
2018-Jul-16 15:01N 46°11' W 123°50'0 0.0
2018-Jul-16 14:31N 46°11' W 123°50'0 0.0
2018-Jul-16 14:01N 46°11' W 123°50'0 0.0
2018-Jul-16 13:31N 46°11' W 123°50'0 0.0
2018-Jul-16 13:00N 46°11' W 123°50'0 0.0
2018-Jul-16 12:30N 46°11' W 123°50'0 0.0
2018-Jul-16 12:01N 46°11' W 123°50'0 0.0
2018-Jul-16 11:31N 46°11' W 123°50'0 0.0
2018-Jul-16 11:01N 46°11' W 123°50'0 0.1
2018-Jul-16 10:31N 46°11' W 123°50'0 0.0
2018-Jul-16 10:01N 46°11' W 123°50'0 0.0
2018-Jul-16 09:30N 46°11' W 123°50'0 0.1
2018-Jul-16 09:01N 46°11' W 123°50'0 0.0
2018-Jul-16 08:31N 46°11' W 123°50'1 1.8
2018-Jul-16 08:00N 46°12' W 123°49'1 1.8
2018-Jul-16 07:31N 46°11' W 123°50'0 0.0
2018-Jul-16 07:00N 46°11' W 123°50'0 0.0
2018-Jul-16 06:31N 46°11' W 123°50'0 0.0
2018-Jul-16 06:01N 46°11' W 123°50'0 0.0
2018-Jul-16 05:31N 46°11' W 123°50'0 0.0
2018-Jul-16 05:01N 46°11' W 123°50'0 0.0
2018-Jul-16 04:31N 46°11' W 123°50'0 0.0
2018-Jul-16 04:01N 46°11' W 123°50'0 0.0
2018-Jul-16 03:31N 46°11' W 123°50'0 0.0
2018-Jul-16 03:00N 46°11' W 123°50'0 0.0
2018-Jul-16 02:30N 46°11' W 123°50'0 0.0
2018-Jul-16 02:01N 46°11' W 123°50'0 0.0
2018-Jul-16 01:31N 46°11' W 123°50'0 0.0
2018-Jul-16 01:01N 46°11' W 123°50'0 0.1
2018-Jul-16 00:30N 46°11' W 123°50'0 0.0
2018-Jul-16 00:00N 46°11' W 123°50'0 0.1
2018-Jul-15 23:30N 46°11' W 123°50'0 0.0
2018-Jul-15 23:01N 46°11' W 123°50'0 0.0
2018-Jul-15 22:31N 46°11' W 123°50'0 0.1
2018-Jul-15 22:00N 46°11' W 123°50'0 0.1
2018-Jul-15 21:31N 46°11' W 123°50'0 0.1
2018-Jul-15 21:01N 46°11' W 123°50'0 0.1
2018-Jul-15 20:31N 46°11' W 123°50'0 0.0
2018-Jul-15 20:01N 46°11' W 123°50'0 0.0
2018-Jul-15 19:30N 46°11' W 123°50'0 0.1
2018-Jul-15 19:00N 46°11' W 123°50'1 1.4
2018-Jul-15 18:30N 46°12' W 123°49'1 1.5
2018-Jul-15 18:00N 46°11' W 123°50'0 0.0
2018-Jul-15 17:30N 46°11' W 123°50'0 0.0
2018-Jul-15 17:00N 46°11' W 123°50'0 0.0
2018-Jul-15 16:30N 46°11' W 123°50'0 0.0
2018-Jul-15 16:01N 46°11' W 123°50'0 0.0
2018-Jul-15 15:31N 46°11' W 123°50'0 0.0
2018-Jul-15 15:00N 46°11' W 123°50'0 0.0
2018-Jul-15 14:31N 46°11' W 123°50'0 0.5
2018-Jul-15 14:01N 46°12' W 123°50'0 0.5
2018-Jul-15 13:29N 46°11' W 123°50'0 0.0
2018-Jul-15 13:00N 46°11' W 123°50'0 0.1
2018-Jul-15 12:30N 46°11' W 123°50'1 1.3
2018-Jul-15 12:00N 46°12' W 123°49'1 1.4
2018-Jul-15 11:30N 46°11' W 123°50'0 0.0
2018-Jul-15 11:00N 46°11' W 123°50'0 0.1
2018-Jul-15 10:30N 46°11' W 123°50'0 0.1
2018-Jul-15 10:00N 46°11' W 123°50'0 0.1
2018-Jul-15 09:30N 46°11' W 123°50'0 0.1
2018-Jul-15 09:00N 46°11' W 123°50'1 1.5
2018-Jul-15 08:30N 46°12' W 123°49'1 1.4
2018-Jul-15 08:00N 46°11' W 123°50'1 1.1
2018-Jul-15 07:31N 46°12' W 123°49'1 1.1
2018-Jul-15 06:59N 46°11' W 123°50'0 0.0
2018-Jul-15 06:30N 46°11' W 123°50'0 0.0
2018-Jul-15 06:00N 46°11' W 123°50'0 0.0
2018-Jul-15 05:30N 46°11' W 123°50'0 0.0
2018-Jul-15 05:00N 46°11' W 123°50'0 0.0
2018-Jul-15 04:30N 46°11' W 123°50'1 2.2
2018-Jul-15 04:00N 46°12' W 123°49'1 2.2
2018-Jul-15 03:30N 46°11' W 123°50'1 1.9
2018-Jul-15 03:01N 46°12' W 123°49'1 1.8
2018-Jul-15 02:30N 46°11' W 123°50'0 0.8
2018-Jul-15 02:01N 46°12' W 123°50'2 4.1
2018-Jul-15 01:30N 46°13' W 123°47'2 4.8
2018-Jul-15 01:00N 46°11' W 123°50'0 0.0
2018-Jul-15 00:30N 46°11' W 123°50'0 0.0
2018-Jul-15 00:00N 46°11' W 123°50'0 0.1
2018-Jul-14 23:13N 46°11' W 123°50'1 2.9
2018-Jul-14 23:01N 46°12' W 123°49'1 2.1
2018-Jul-14 22:31N 46°13' W 123°48'2 3.3
2018-Jul-14 22:00N 46°11' W 123°50'0 0.0
2018-Jul-14 21:30N 46°11' W 123°50'0 0.0
2018-Jul-14 21:00N 46°11' W 123°50'0 0.0
2018-Jul-14 20:30N 46°11' W 123°50'0 0.0
2018-Jul-14 20:01N 46°11' W 123°50'0 0.0
2018-Jul-14 19:30N 46°11' W 123°50'0 0.0
2018-Jul-14 19:01N 46°11' W 123°50'0 0.0
2018-Jul-14 18:29N 46°11' W 123°50'0 0.0
2018-Jul-14 18:00N 46°11' W 123°50'0 0.1
2018-Jul-14 17:30N 46°11' W 123°50'0 0.0
2018-Jul-14 17:01N 46°11' W 123°50'2 4.1
2018-Jul-14 16:31N 46°13' W 123°48'2 4.2
2018-Jul-14 16:01N 46°11' W 123°50'0 0.0
2018-Jul-14 15:31N 46°11' W 123°50'0 0.0
2018-Jul-14 15:01N 46°11' W 123°50'0 0.0
2018-Jul-14 14:30N 46°11' W 123°50'0 0.0
2018-Jul-14 13:29N 46°11' W 123°50'0 0.0
2018-Jul-14 13:00N 46°11' W 123°50'0 0.1
2018-Jul-14 12:31N 46°11' W 123°50'0 0.1
2018-Jul-14 12:00N 46°11' W 123°50'0 0.0
2018-Jul-14 11:30N 46°11' W 123°50'0 0.0
2018-Jul-14 11:01N 46°11' W 123°50'0 0.0
2018-Jul-14 10:31N 46°11' W 123°50'0 0.0
2018-Jul-14 10:01N 46°11' W 123°50'0 0.0
2018-Jul-14 09:15N 46°11' W 123°50'0 1.6
2018-Jul-14 09:01N 46°12' W 123°50'0 0.7
2018-Jul-14 08:30N 46°11' W 123°50'0 0.1
2018-Jul-14 08:00N 46°11' W 123°50'0 0.1
2018-Jul-14 07:31N 46°11' W 123°50'0 0.0
2018-Jul-14 06:59N 46°11' W 123°50'0 0.0
2018-Jul-14 06:30N 46°11' W 123°50'0 0.0
2018-Jul-14 06:00N 46°11' W 123°50'0 0.1
2018-Jul-14 05:30N 46°11' W 123°50'0 0.1
2018-Jul-14 05:00N 46°11' W 123°50'0 0.0
2018-Jul-14 04:30N 46°11' W 123°50'0 0.8
2018-Jul-14 04:01N 46°12' W 123°50'0 0.7
2018-Jul-14 03:27N 46°11' W 123°50'1 3.0
2018-Jul-14 03:00N 46°12' W 123°48'1 2.6
2018-Jul-14 02:30N 46°11' W 123°50'1 2.5
2018-Jul-14 02:00N 46°12' W 123°48'1 2.5
2018-Jul-14 01:30N 46°11' W 123°50'0 0.0
2018-Jul-14 01:00N 46°11' W 123°50'0 0.0
2018-Jul-14 00:30N 46°11' W 123°50'0 0.0
2018-Jul-13 23:49N 46°11' W 123°50'3 9.1
2018-Jul-13 23:31N 46°13' W 123°46'0 0.3
2018-Jul-13 23:00N 46°13' W 123°47'3 5.3
2018-Jul-13 22:30N 46°12' W 123°50'0 0.2
2018-Jul-13 22:01N 46°11' W 123°50'0 0.7
2018-Jul-13 21:30N 46°12' W 123°50'0 0.7
2018-Jul-13 21:00N 46°11' W 123°50'0 0.0
2018-Jul-13 20:16N 46°11' W 123°50'0 0.0
2018-Jul-13 20:00N 46°11' W 123°50'0 0.0
2018-Jul-13 19:30N 46°11' W 123°50'0 0.0
2018-Jul-13 19:00N 46°11' W 123°50'2 4.2
2018-Jul-13 18:30N 46°13' W 123°47'2 3.7
2018-Jul-13 18:01N 46°13' W 123°45'3 5.2
2018-Jul-13 17:30N 46°12' W 123°48'1 2.7
2018-Jul-13 17:01N 46°11' W 123°50'0 0.0
2018-Jul-13 16:30N 46°11' W 123°50'0 0.0
2018-Jul-13 16:00N 46°11' W 123°50'0 0.0
2018-Jul-13 15:31N 46°11' W 123°50'0 0.0
2018-Jul-13 15:00N 46°11' W 123°50'0 0.0
2018-Jul-13 14:00N 46°11' W 123°50'0 0.0
2018-Jul-13 13:30N 46°11' W 123°50'0 0.0
2018-Jul-13 13:00N 46°11' W 123°50'0 0.0
2018-Jul-13 12:31N 46°11' W 123°50'0 0.0
2018-Jul-13 12:00N 46°11' W 123°50'0 0.0
2018-Jul-13 11:31N 46°11' W 123°50'0 0.0
2018-Jul-13 11:00N 46°11' W 123°50'1 1.2
2018-Jul-13 10:31N 46°12' W 123°49'1 1.1
2018-Jul-13 10:00N 46°11' W 123°50'0 0.1
2018-Jul-13 09:30N 46°11' W 123°50'0 0.1
2018-Jul-13 09:01N 46°11' W 123°50'1 2.5
2018-Jul-13 08:31N 46°12' W 123°49'1 2.5
2018-Jul-13 08:01N 46°11' W 123°50'0 0.1
2018-Jul-13 07:30N 46°11' W 123°50'0 0.0
2018-Jul-13 06:59N 46°11' W 123°50'0 0.0
2018-Jul-13 06:30N 46°11' W 123°50'0 0.0
2018-Jul-13 06:01N 46°11' W 123°50'0 0.1
2018-Jul-13 05:30N 46°11' W 123°50'0 0.1
2018-Jul-13 05:00N 46°11' W 123°50'0 0.0
2018-Jul-13 04:31N 46°11' W 123°50'0 0.4
2018-Jul-13 04:01N 46°12' W 123°50'0 0.4
2018-Jul-13 03:31N 46°11' W 123°50'0 0.0
2018-Jul-13 03:01N 46°11' W 123°50'0 0.0
2018-Jul-13 02:30N 46°11' W 123°50'0 0.0
2018-Jul-13 02:00N 46°11' W 123°50'0 0.0
2018-Jul-13 01:30N 46°11' W 123°50'0 0.0
2018-Jul-13 01:01N 46°11' W 123°50'0 0.0
2018-Jul-13 00:30N 46°11' W 123°50'0 0.0
2018-Jul-13 00:00N 46°11' W 123°50'1 2.7
2018-Jul-12 23:30N 46°12' W 123°48'1 2.7
2018-Jul-12 23:00N 46°11' W 123°50'0 0.0
2018-Jul-12 22:30N 46°11' W 123°50'0 0.9
2018-Jul-12 22:00N 46°12' W 123°49'0 0.9
2018-Jul-12 21:30N 46°11' W 123°50'0 0.0
2018-Jul-12 21:00N 46°11' W 123°50'0 0.0
2018-Jul-12 20:30N 46°11' W 123°50'0 0.0
2018-Jul-12 19:37N 46°11' W 123°50'0 0.0
2018-Jul-12 19:30N 46°11' W 123°50'0 0.0
2018-Jul-12 19:00N 46°11' W 123°50'0 0.5
2018-Jul-12 18:30N 46°12' W 123°50'0 0.5
2018-Jul-12 18:00N 46°11' W 123°50'0 0.0
2018-Jul-12 17:22N 46°11' W 123°50'0 0.0
2018-Jul-12 17:00N 46°11' W 123°50'0 0.0
2018-Jul-12 16:30N 46°11' W 123°50'1 2.5
2018-Jul-12 16:00N 46°12' W 123°49'3 5.7
2018-Jul-12 15:31N 46°14' W 123°45'4 8.0
2018-Jul-12 15:01N 46°11' W 123°50'0 0.5
2018-Jul-12 14:31N 46°12' W 123°50'0 0.5
2018-Jul-12 14:01N 46°11' W 123°50'0 0.0
2018-Jul-12 13:31N 46°11' W 123°50'0 0.0
2018-Jul-12 13:00N 46°11' W 123°50'0 0.0
2018-Jul-12 12:18N 46°11' W 123°50'0 0.1
2018-Jul-12 12:01N 46°11' W 123°50'0 0.1
2018-Jul-12 11:31N 46°11' W 123°50'0 0.0
2018-Jul-12 10:35N 46°11' W 123°50'0 0.5
2018-Jul-12 10:30N 46°11' W 123°50'0 0.0
2018-Jul-12 09:48N 46°11' W 123°50'0 0.0
2018-Jul-12 09:31N 46°11' W 123°50'0 0.0
2018-Jul-12 08:54N 46°11' W 123°50'2 5.5
2018-Jul-12 08:31N 46°13' W 123°47'2 3.9
2018-Jul-12 07:58N 46°11' W 123°50'0 0.1
2018-Jul-12 07:30N 46°11' W 123°50'0 0.1
2018-Jul-12 06:59N 46°11' W 123°50'0 0.0
2018-Jul-12 06:30N 46°11' W 123°50'0 0.0
2018-Jul-12 06:01N 46°11' W 123°50'0 0.0
2018-Jul-12 05:30N 46°11' W 123°50'0 0.0
2018-Jul-12 05:01N 46°11' W 123°50'0 0.0
2018-Jul-12 04:24N 46°11' W 123°50'0 0.0
2018-Jul-12 04:01N 46°11' W 123°50'0 0.0
2018-Jul-12 03:30N 46°11' W 123°50'0 0.0
2018-Jul-12 02:48N 46°11' W 123°50'0 0.0
2018-Jul-12 02:30N 46°11' W 123°50'0 0.0
2018-Jul-12 02:01N 46°11' W 123°50'0 0.0
2018-Jul-12 01:30N 46°11' W 123°50'0 0.0
2018-Jul-12 01:01N 46°11' W 123°50'0 0.0
2018-Jul-12 00:30N 46°11' W 123°50'0 0.0
2018-Jul-12 00:01N 46°11' W 123°50'0 0.0
2018-Jul-11 23:31N 46°11' W 123°50'2 3.3
2018-Jul-11 23:00N 46°12' W 123°48'2 3.3
2018-Jul-11 22:30N 46°11' W 123°50'0 0.0
2018-Jul-11 22:00N 46°11' W 123°50'0 0.0
2018-Jul-11 21:31N 46°11' W 123°50'0 0.0
2018-Jul-11 20:59N 46°11' W 123°50'0 0.0
2018-Jul-11 20:31N 46°11' W 123°50'0 0.0
2018-Jul-11 20:01N 46°11' W 123°50'0 0.0
2018-Jul-11 19:31N 46°11' W 123°50'0 0.0
2018-Jul-11 19:01N 46°11' W 123°50'1 1.6
2018-Jul-11 18:31N 46°12' W 123°49'1 1.6
2018-Jul-11 18:00N 46°11' W 123°50'0 0.0
2018-Jul-11 17:30N 46°11' W 123°50'0 0.0
2018-Jul-11 17:01N 46°11' W 123°50'  

Dump ship's entire track history